createdAt,value
2023-02-22T00:01:08.372Z,100551.62
2023-02-22T00:03:37.293Z,100547.43
2023-02-22T00:06:06.807Z,100550.91
2023-02-22T00:08:37.626Z,100545.39
2023-02-22T00:11:09.042Z,100542.54
2023-02-22T00:13:38.803Z,100558.82
2023-02-22T00:16:07.363Z,100564.45
2023-02-22T00:18:36.080Z,100569.58
2023-02-22T00:21:05.589Z,100571.06
2023-02-22T00:23:35.231Z,100573.67
2023-02-22T00:26:03.777Z,100570.63
2023-02-22T00:28:32.528Z,100566.65
2023-02-22T00:31:01.151Z,100570.75
2023-02-22T00:33:29.627Z,100573.23
2023-02-22T00:35:58.014Z,100578.65
2023-02-22T00:38:28.960Z,100585.44
2023-02-22T00:40:57.530Z,100585.92
2023-02-22T00:43:26.626Z,100583.27
2023-02-22T00:45:55.138Z,100581.64
2023-02-22T00:48:24.155Z,100582.56
2023-02-22T00:50:55.514Z,100585.81
2023-02-22T00:53:26.288Z,100582.56
2023-02-22T00:55:54.986Z,100576.45
2023-02-22T00:58:24.584Z,100576.55
2023-02-22T01:00:53.844Z,100570.79
2023-02-22T01:03:22.367Z,100566.45
2023-02-22T01:05:51.368Z,100564.72
2023-02-22T01:08:20.562Z,100569.71
2023-02-22T01:10:48.840Z,100574.73
2023-02-22T01:13:19.337Z,100576.75
2023-02-22T01:15:48.773Z,100574.41
2023-02-22T01:18:17.561Z,100577.48
2023-02-22T01:20:48.259Z,100579.55
2023-02-22T01:23:17.816Z,100579.65
2023-02-22T01:25:46.395Z,100578.63
2023-02-22T01:28:16.506Z,100580.70
2023-02-22T01:30:45.776Z,100578.77
2023-02-22T01:33:15.846Z,100576.27
2023-02-22T01:35:46.531Z,100572.80
2023-02-22T01:38:15.349Z,100568.20
2023-02-22T01:40:48.548Z,100572.40
2023-02-22T01:43:20.194Z,100569.98
2023-02-22T01:46:04.419Z,100568.67
2023-02-22T01:48:38.867Z,100569.31
2023-02-22T01:51:22.818Z,100564.06
2023-02-22T01:53:59.381Z,100558.89
2023-02-22T01:56:31.321Z,100560.40
2023-02-22T01:59:06.945Z,100565.02
2023-02-22T02:01:43.179Z,100570.96
2023-02-22T02:04:18.500Z,100565.54
2023-02-22T02:06:48.933Z,100565.98
2023-02-22T02:09:43.838Z,100565.33
2023-02-22T02:12:16.386Z,100565.48
2023-02-22T02:14:44.996Z,100565.59
2023-02-22T02:17:18.058Z,100565.39
2023-02-22T02:19:59.673Z,100567.20
2023-02-22T02:22:43.104Z,100567.61
2023-02-22T02:25:26.846Z,100577.78
2023-02-22T02:28:20.419Z,100577.50
2023-02-22T02:31:02.528Z,100582.80
2023-02-22T02:33:34.282Z,100583.41
2023-02-22T02:36:33.995Z,100584.73
2023-02-22T02:39:15.027Z,100590.51
2023-02-22T02:41:50.829Z,100585.79
2023-02-22T02:44:52.786Z,100583.14
2023-02-22T02:47:27.376Z,100582.34
2023-02-22T02:50:05.063Z,100585.60
2023-02-22T02:52:37.339Z,100589.61
2023-02-22T02:55:08.494Z,100588.08
2023-02-22T02:57:39.072Z,100590.35
2023-02-22T03:00:24.540Z,100599.35
2023-02-22T03:03:04.482Z,100601.23
2023-02-22T03:05:59.907Z,100599.91
2023-02-22T03:08:28.692Z,100593.73
2023-02-22T03:11:29.430Z,100598.20
2023-02-22T03:14:27.199Z,100600.20
2023-02-22T03:17:05.312Z,100602.83
2023-02-22T03:19:45.676Z,100611.81
2023-02-22T03:22:18.316Z,100606.03
2023-02-22T03:24:56.096Z,100608.06
2023-02-22T03:27:36.077Z,100610.89
2023-02-22T03:30:16.145Z,100612.02
2023-02-22T03:32:49.756Z,100616.23
2023-02-22T03:35:25.918Z,100618.52
2023-02-22T03:37:58.096Z,100614.80
2023-02-22T03:40:35.716Z,100620.05
2023-02-22T03:43:08.429Z,100619.23
2023-02-22T03:45:43.816Z,100620.16
2023-02-22T03:48:38.507Z,100623.23
2023-02-22T03:51:08.317Z,100625.53
2023-02-22T03:53:37.719Z,100627.75
2023-02-22T03:56:11.435Z,100620.34
2023-02-22T03:58:48.133Z,100618.86
2023-02-22T04:01:17.508Z,100623.58
2023-02-22T04:03:46.721Z,100627.34
2023-02-22T04:06:17.096Z,100628.15
2023-02-22T04:08:46.321Z,100626.71
2023-02-22T04:11:15.812Z,100636.00
2023-02-22T04:13:44.622Z,100638.44
2023-02-22T04:16:13.343Z,100656.96
2023-02-22T04:18:42.506Z,100666.36
2023-02-22T04:21:11.193Z,100661.85
2023-02-22T04:23:46.541Z,100663.39
2023-02-22T04:26:15.437Z,100675.05
2023-02-22T04:28:47.463Z,100668.41
2023-02-22T04:31:18.545Z,100671.80
2023-02-22T04:33:47.630Z,100679.13
2023-02-22T04:36:19.598Z,100682.91
2023-02-22T04:38:48.677Z,100690.69
2023-02-22T04:41:19.142Z,100687.20
2023-02-22T04:43:48.217Z,100690.41
2023-02-22T04:46:23.119Z,100684.40
2023-02-22T04:48:54.897Z,100683.38
2023-02-22T04:51:26.868Z,100681.02
2023-02-22T04:54:05.076Z,100678.14
2023-02-22T04:56:35.640Z,100685.24
2023-02-22T04:59:04.515Z,100687.02
2023-02-22T05:01:35.514Z,100688.92
2023-02-22T05:04:05.456Z,100686.20
2023-02-22T05:06:34.713Z,100686.05
2023-02-22T05:09:03.646Z,100692.84
2023-02-22T05:11:32.335Z,100688.88
2023-02-22T05:14:00.917Z,100690.46
2023-02-22T05:16:30.321Z,100705.48
2023-02-22T05:18:58.802Z,100703.64
2023-02-22T05:21:27.389Z,100712.55
2023-02-22T05:23:56.689Z,100716.93
2023-02-22T05:26:25.197Z,100732.13
2023-02-22T05:28:53.856Z,100725.44
2023-02-22T05:31:22.909Z,100729.84
2023-02-22T05:33:51.645Z,100726.03
2023-02-22T05:36:20.330Z,100724.61
2023-02-22T05:38:49.642Z,100734.15
2023-02-22T05:41:18.700Z,100734.52
2023-02-22T05:43:48.027Z,100736.48
2023-02-22T05:46:16.939Z,100743.84
2023-02-22T05:48:45.919Z,100746.73
2023-02-22T05:51:15.435Z,100746.36
2023-02-22T05:53:44.514Z,100753.16
2023-02-22T05:56:13.105Z,100751.30
2023-02-22T05:58:41.786Z,100757.21
2023-02-22T06:01:10.433Z,100764.34
2023-02-22T06:03:38.854Z,100758.27
2023-02-22T06:06:07.696Z,100761.19
2023-02-22T06:08:36.492Z,100769.13
2023-02-22T06:11:05.538Z,100769.23
2023-02-22T06:13:34.009Z,100760.92
2023-02-22T06:16:03.889Z,100763.89
2023-02-22T06:18:32.403Z,100769.41
2023-02-22T06:21:00.982Z,100765.50
2023-02-22T06:23:30.192Z,100773.61
2023-02-22T06:25:58.972Z,100776.52
2023-02-22T06:28:27.455Z,100780.92
2023-02-22T06:30:56.447Z,100788.95
2023-02-22T06:33:25.176Z,100789.42
2023-02-22T06:35:53.819Z,100793.42
2023-02-22T06:38:28.028Z,100796.86
2023-02-22T06:40:56.622Z,100803.91
2023-02-22T06:43:26.126Z,100802.66
2023-02-22T06:45:54.714Z,100803.23
2023-02-22T06:48:23.295Z,100803.34
2023-02-22T06:50:52.086Z,100803.67
2023-02-22T06:53:20.979Z,100813.00
2023-02-22T06:55:49.969Z,100816.48
2023-02-22T06:58:18.838Z,100820.73
2023-02-22T07:00:47.793Z,100822.55
2023-02-22T07:03:16.685Z,100817.39
2023-02-22T07:05:45.545Z,100820.11
2023-02-22T07:08:14.742Z,100816.16
2023-02-22T07:10:43.321Z,100818.81
2023-02-22T07:13:12.317Z,100815.05
2023-02-22T07:15:41.310Z,100814.09
2023-02-22T07:18:10.104Z,100819.34
2023-02-22T07:20:38.711Z,100818.46
2023-02-22T07:23:07.371Z,100819.88
2023-02-22T07:25:35.943Z,100819.88
2023-02-22T07:28:05.161Z,100819.81
2023-02-22T07:30:34.812Z,100825.65
2023-02-22T07:33:09.000Z,100828.80
2023-02-22T07:35:39.219Z,100829.38
2023-02-22T07:38:08.508Z,100836.89
2023-02-22T07:40:38.739Z,100837.89
2023-02-22T07:43:18.269Z,100835.44
2023-02-22T07:45:49.222Z,100838.76
2023-02-22T07:48:19.894Z,100839.06
2023-02-22T07:50:48.953Z,100841.04
2023-02-22T07:53:24.176Z,100839.77
2023-02-22T07:55:53.276Z,100845.14
2023-02-22T07:58:23.891Z,100842.30
2023-02-22T08:00:53.506Z,100842.37
2023-02-22T08:03:24.832Z,100844.23
2023-02-22T08:05:56.096Z,100847.63
2023-02-22T08:08:25.217Z,100848.23
2023-02-22T08:10:53.799Z,100853.23
2023-02-22T08:13:23.524Z,100851.05
2023-02-22T08:15:54.042Z,100843.84
2023-02-22T08:18:23.874Z,100840.33
2023-02-22T08:20:54.577Z,100835.95
2023-02-22T08:23:27.245Z,100840.49
2023-02-22T08:25:57.060Z,100836.13
2023-02-22T08:28:25.986Z,100840.81
2023-02-22T08:30:54.563Z,100845.80
2023-02-22T08:33:23.544Z,100846.33
2023-02-22T08:35:52.718Z,100844.83
2023-02-22T08:38:32.658Z,100841.21
2023-02-22T08:41:01.487Z,100845.95
2023-02-22T08:43:29.967Z,100853.19
2023-02-22T08:45:58.791Z,100855.55
2023-02-22T08:48:27.853Z,100856.38
2023-02-22T08:50:56.645Z,100863.92
2023-02-22T08:53:25.525Z,100866.52
2023-02-22T08:55:54.681Z,100871.06
2023-02-22T08:58:23.207Z,100877.17
2023-02-22T09:00:52.737Z,100878.20
2023-02-22T09:03:21.764Z,100878.09
2023-02-22T09:05:50.573Z,100881.76
2023-02-22T09:08:19.115Z,100885.23
2023-02-22T09:10:50.446Z,100888.36
2023-02-22T09:13:19.804Z,100892.98
2023-02-22T09:15:48.420Z,100894.34
2023-02-22T09:18:18.332Z,100895.77
2023-02-22T09:20:47.203Z,100890.35
2023-02-22T09:23:16.115Z,100892.95
2023-02-22T09:25:44.599Z,100890.16
2023-02-22T09:28:13.801Z,100894.86
2023-02-22T09:30:42.850Z,100889.86
2023-02-22T09:33:14.807Z,100889.44
2023-02-22T09:35:46.653Z,100887.80
2023-02-22T09:38:16.437Z,100886.28
2023-02-22T09:41:12.569Z,100883.44
2023-02-22T09:44:01.617Z,100885.52
2023-02-22T09:46:38.519Z,100891.48
2023-02-22T09:49:16.321Z,100892.59
2023-02-22T09:51:55.540Z,100892.19
2023-02-22T09:54:52.249Z,100894.63
2023-02-22T09:57:32.848Z,100896.66
2023-02-22T10:00:23.456Z,100895.25
2023-02-22T10:03:14.562Z,100894.16
2023-02-22T10:05:49.805Z,100886.60
2023-02-22T10:08:20.038Z,100881.00
2023-02-22T10:10:59.774Z,100880.20
2023-02-22T10:13:51.500Z,100880.30
2023-02-22T10:16:41.003Z,100880.02
2023-02-22T10:19:11.404Z,100881.44
2023-02-22T10:22:07.393Z,100878.70
2023-02-22T10:25:09.640Z,100876.19
2023-02-22T10:27:44.272Z,100873.63
2023-02-22T10:30:30.922Z,100871.55
2023-02-22T10:33:07.128Z,100869.56
2023-02-22T10:35:41.223Z,100871.92
2023-02-22T10:38:27.232Z,100863.80
2023-02-22T10:41:02.465Z,100863.77
2023-02-22T10:43:31.552Z,100862.23
2023-02-22T10:46:03.841Z,100858.30
2023-02-22T10:48:35.824Z,100856.98
2023-02-22T10:51:08.748Z,100852.55
2023-02-22T10:53:38.968Z,100848.86
2023-02-22T10:56:08.339Z,100844.82
2023-02-22T10:58:46.512Z,100849.00
2023-02-22T11:01:21.460Z,100848.84
2023-02-22T11:04:02.249Z,100847.18
2023-02-22T11:06:33.416Z,100851.24
2023-02-22T11:09:10.738Z,100852.03
2023-02-22T11:11:46.032Z,100853.20
2023-02-22T11:14:27.757Z,100852.23
2023-02-22T11:16:59.042Z,100850.12
2023-02-22T11:19:31.095Z,100848.71
2023-02-22T11:22:12.600Z,100845.59
2023-02-22T11:25:00.427Z,100846.94
2023-02-22T11:27:43.557Z,100847.35
2023-02-22T11:30:21.178Z,100846.47
2023-02-22T11:32:55.490Z,100844.61
2023-02-22T11:35:32.532Z,100846.81
2023-02-22T11:38:16.491Z,100839.02
2023-02-22T11:40:46.338Z,100842.86
2023-02-22T11:43:18.874Z,100839.27
2023-02-22T11:46:02.175Z,100834.83
2023-02-22T11:48:36.865Z,100831.59
2023-02-22T11:51:14.493Z,100835.80
2023-02-22T11:54:19.781Z,100831.39
2023-02-22T11:56:54.196Z,100822.80
2023-02-22T11:59:31.997Z,100820.45
2023-02-22T12:02:19.522Z,100824.52
2023-02-22T12:05:28.859Z,100822.75
2023-02-22T12:08:19.811Z,100826.86
2023-02-22T12:10:49.078Z,100824.05
2023-02-22T12:13:30.197Z,100824.17
2023-02-22T12:16:19.387Z,100824.40
2023-02-22T12:19:06.230Z,100825.45
2023-02-22T12:21:38.522Z,100831.36
2023-02-22T12:24:21.199Z,100828.03
2023-02-22T12:26:55.817Z,100829.74
2023-02-22T12:29:59.863Z,100831.29
2023-02-22T12:32:43.846Z,100827.17
2023-02-22T12:35:37.610Z,100823.84
2023-02-22T12:38:15.078Z,100824.10
2023-02-22T12:40:54.419Z,100826.20
2023-02-22T12:43:30.276Z,100823.10
2023-02-22T12:46:10.328Z,100822.57
2023-02-22T12:48:57.498Z,100823.09
2023-02-22T12:51:43.853Z,100829.05
2023-02-22T12:54:44.946Z,100828.27
2023-02-22T12:57:34.774Z,100829.59
2023-02-22T13:00:48.429Z,100829.29
2023-02-22T13:03:35.432Z,100824.65
2023-02-22T13:06:22.761Z,100821.87
2023-02-22T13:08:54.420Z,100824.43
2023-02-22T13:11:42.215Z,100823.95
2023-02-22T13:14:43.875Z,100830.80
2023-02-22T13:17:23.963Z,100832.68
2023-02-22T13:20:20.705Z,100831.92
2023-02-22T13:22:56.049Z,100829.27
2023-02-22T13:25:31.497Z,100827.49
2023-02-22T13:28:13.288Z,100827.00
2023-02-22T13:31:00.652Z,100829.14
2023-02-22T13:33:44.221Z,100826.66
2023-02-22T13:36:35.360Z,100823.02
2023-02-22T13:39:31.696Z,100827.63
2023-02-22T13:42:09.598Z,100829.38
2023-02-22T13:45:23.751Z,100831.52
2023-02-22T13:48:08.307Z,100834.45
2023-02-22T13:50:48.825Z,100841.17
2023-02-22T13:53:33.333Z,100842.44
2023-02-22T13:56:02.538Z,100847.63
2023-02-22T13:58:31.424Z,100841.36
2023-02-22T14:01:00.450Z,100844.46
2023-02-22T14:03:36.680Z,100845.66
2023-02-22T14:06:07.369Z,100847.95
2023-02-22T14:08:36.306Z,100848.73
2023-02-22T14:11:15.951Z,100850.76
2023-02-22T14:14:01.158Z,100850.68
2023-02-22T14:16:32.353Z,100851.25
2023-02-22T14:19:10.076Z,100851.77
2023-02-22T14:21:56.747Z,100848.56
2023-02-22T14:24:25.469Z,100843.65
2023-02-22T14:26:59.757Z,100848.58
2023-02-22T14:29:28.537Z,100848.48
2023-02-22T14:32:07.631Z,100846.66
2023-02-22T14:34:54.209Z,100844.98
2023-02-22T14:37:43.179Z,100847.75
2023-02-22T14:40:26.624Z,100847.20
2023-02-22T14:43:13.336Z,100848.55
2023-02-22T14:45:50.927Z,100841.69
2023-02-22T14:48:25.286Z,100840.06
2023-02-22T14:51:20.950Z,100846.55
2023-02-22T14:54:00.900Z,100844.63
2023-02-22T14:56:44.539Z,100843.48
2023-02-22T14:59:26.538Z,100843.85
2023-02-22T15:02:13.115Z,100841.36
2023-02-22T15:04:44.377Z,100842.32
2023-02-22T15:07:29.361Z,100837.12
2023-02-22T15:10:40.245Z,100834.46
2023-02-22T15:13:24.388Z,100836.59
2023-02-22T15:16:01.371Z,100837.20
2023-02-22T15:18:37.985Z,100840.25
2023-02-22T15:21:19.697Z,100840.63
2023-02-22T15:24:00.209Z,100841.58
2023-02-22T15:26:35.551Z,100843.61
2023-02-22T15:29:26.352Z,100841.83
2023-02-22T15:31:57.033Z,100845.03
2023-02-22T15:34:30.476Z,100846.05
2023-02-22T15:37:15.457Z,100849.84
2023-02-22T15:39:44.158Z,100854.57
2023-02-22T15:42:21.188Z,100857.95
2023-02-22T15:44:54.006Z,100860.08
2023-02-22T15:47:26.188Z,100863.92
2023-02-22T15:50:16.597Z,100860.83
2023-02-22T15:53:28.676Z,100864.73
2023-02-22T15:56:01.878Z,100867.76
2023-02-22T15:58:31.072Z,100868.94
2023-02-22T16:01:08.395Z,100874.55
2023-02-22T16:03:45.817Z,100871.19
2023-02-22T16:06:38.115Z,100876.16
2023-02-22T16:09:25.831Z,100878.95
2023-02-22T16:12:22.276Z,100882.32
2023-02-22T16:14:52.758Z,100884.70
2023-02-22T16:17:35.819Z,100889.88
2023-02-22T16:20:14.766Z,100889.12
2023-02-22T16:22:50.586Z,100896.02
2023-02-22T16:25:19.724Z,100898.05
2023-02-22T16:28:01.715Z,100901.98
2023-02-22T16:30:32.793Z,100907.14
2023-02-22T16:33:05.827Z,100909.23
2023-02-22T16:35:35.866Z,100913.05
2023-02-22T16:38:08.194Z,100916.92
2023-02-22T16:40:50.823Z,100920.18
2023-02-22T16:43:24.030Z,100920.40
2023-02-22T16:45:55.910Z,100926.67
2023-02-22T16:48:26.009Z,100928.98
2023-02-22T16:50:57.206Z,100936.11
2023-02-22T16:53:30.908Z,100936.41
2023-02-22T16:56:06.031Z,100936.35
2023-02-22T16:58:38.520Z,100939.89
2023-02-22T17:01:08.130Z,100941.86
2023-02-22T17:03:36.962Z,100941.95
2023-02-22T17:06:06.064Z,100943.94
2023-02-22T17:08:34.608Z,100946.30
2023-02-22T17:11:04.455Z,100951.54
2023-02-22T17:13:35.876Z,100949.41
2023-02-22T17:16:05.754Z,100950.78
2023-02-22T17:18:34.431Z,100948.30
2023-02-22T17:21:03.888Z,100949.59
2023-02-22T17:23:33.117Z,100950.58
2023-02-22T17:26:03.612Z,100952.48
2023-02-22T17:28:33.054Z,100949.41
2023-02-22T17:31:02.332Z,100946.08
2023-02-22T17:33:33.742Z,100950.89
2023-02-22T17:36:05.189Z,100951.52
2023-02-22T17:38:35.233Z,100956.92
2023-02-22T17:41:06.829Z,100962.17
2023-02-22T17:43:35.415Z,100966.23
2023-02-22T17:46:08.797Z,100967.11
2023-02-22T17:48:38.410Z,100967.73
2023-02-22T17:51:08.933Z,100967.89
2023-02-22T17:53:39.141Z,100970.91
2023-02-22T17:56:13.888Z,100968.09
2023-02-22T17:58:42.801Z,100967.24
2023-02-22T18:01:27.355Z,100960.48
2023-02-22T18:03:59.681Z,100956.97
2023-02-22T18:06:30.427Z,100953.67
2023-02-22T18:09:01.105Z,100955.15
2023-02-22T18:11:32.843Z,100959.20
2023-02-22T18:14:01.734Z,100960.40
2023-02-22T18:16:30.776Z,100954.84
2023-02-22T18:19:01.786Z,100956.59
2023-02-22T18:21:30.965Z,100959.42
2023-02-22T18:24:00.169Z,100958.91
2023-02-22T18:26:29.186Z,100962.58
2023-02-22T18:28:58.365Z,100963.40
2023-02-22T18:31:27.113Z,100962.76
2023-02-22T18:33:57.714Z,100966.78
2023-02-22T18:36:26.486Z,100964.61
2023-02-22T18:38:55.773Z,100962.95
2023-02-22T18:41:25.716Z,100967.69
2023-02-22T18:43:55.833Z,100964.56
2023-02-22T18:46:25.492Z,100966.84
2023-02-22T18:48:56.420Z,100966.67
2023-02-22T18:51:26.515Z,100969.69
2023-02-22T18:54:00.843Z,100970.73
2023-02-22T18:56:30.379Z,100966.89
2023-02-22T18:59:02.235Z,100963.80
2023-02-22T19:01:38.797Z,100963.91
2023-02-22T19:04:14.995Z,100968.61
2023-02-22T19:06:45.432Z,100972.11
2023-02-22T19:09:14.500Z,100970.86
2023-02-22T19:11:47.204Z,100971.02
2023-02-22T19:14:17.546Z,100967.83
2023-02-22T19:16:48.983Z,100969.36
2023-02-22T19:19:22.501Z,100969.25
2023-02-22T19:21:52.908Z,100979.86
2023-02-22T19:24:21.617Z,100982.16
2023-02-22T19:26:57.754Z,100984.11
2023-02-22T19:29:26.519Z,100982.83
2023-02-22T19:31:55.128Z,100983.73
2023-02-22T19:34:26.269Z,100986.56
2023-02-22T19:36:56.295Z,100985.83
2023-02-22T19:39:26.298Z,100984.77
2023-02-22T19:41:56.594Z,100986.16
2023-02-22T19:44:27.058Z,100985.64
2023-02-22T19:46:55.952Z,100986.48
2023-02-22T19:51:58.251Z,100984.71
2023-02-22T19:54:27.550Z,100985.10
2023-02-22T19:56:58.274Z,100985.75
2023-02-22T19:59:26.866Z,100981.62
2023-02-22T20:01:56.751Z,100986.87
2023-02-22T20:04:26.720Z,100983.09
2023-02-22T20:06:55.391Z,100979.61
2023-02-22T20:09:30.512Z,100980.75
2023-02-22T20:11:59.315Z,100978.31
2023-02-22T20:15:28.014Z,100974.34
2023-02-22T20:18:56.346Z,100980.02
2023-02-22T20:22:31.178Z,100983.88
2023-02-22T20:26:06.062Z,100987.21
2023-02-22T20:28:34.920Z,100988.05
2023-02-22T20:31:11.416Z,100983.41
2023-02-22T20:33:53.780Z,100987.37
2023-02-22T20:36:22.621Z,100986.34
2023-02-22T20:38:56.057Z,100987.61
2023-02-22T20:41:30.481Z,100985.43
2023-02-22T20:44:01.174Z,100990.43
2023-02-22T20:46:32.230Z,100994.67
2023-02-22T20:49:01.748Z,100995.14
2023-02-22T20:51:30.993Z,100991.10
2023-02-22T20:54:00.336Z,100995.36
2023-02-22T20:56:31.855Z,100989.93
2023-02-22T20:59:01.483Z,100989.30
2023-02-22T21:01:31.597Z,100996.70
2023-02-22T21:04:05.484Z,100993.32
2023-02-22T21:06:37.766Z,100997.77
2023-02-22T21:09:12.020Z,100994.35
2023-02-22T21:11:40.795Z,100998.10
2023-02-22T21:14:12.792Z,100997.34
2023-02-22T21:16:41.496Z,101001.87
2023-02-22T21:19:10.434Z,100994.86
2023-02-22T21:21:39.229Z,100995.93
2023-02-22T21:24:08.745Z,100993.46
2023-02-22T21:26:37.316Z,100994.45
2023-02-22T21:29:07.035Z,100995.50
2023-02-22T21:31:37.358Z,100996.63
2023-02-22T21:34:05.941Z,100997.77
2023-02-22T21:36:34.731Z,100998.98
2023-02-22T21:39:09.865Z,101000.17
2023-02-22T21:41:40.979Z,101006.26
2023-02-22T21:44:10.705Z,100999.27
2023-02-22T21:46:39.415Z,100995.41
2023-02-22T21:49:08.198Z,100991.66
2023-02-22T21:51:38.233Z,101001.26
2023-02-22T21:54:10.495Z,101002.86
2023-02-22T21:56:41.781Z,101007.06
2023-02-22T21:59:16.590Z,101000.09
2023-02-22T22:01:48.181Z,100992.00
2023-02-22T22:04:27.767Z,100984.88
2023-02-22T22:06:59.019Z,100987.85
2023-02-22T22:09:33.028Z,100997.94
2023-02-22T22:12:06.029Z,101007.64
2023-02-22T22:14:36.004Z,101004.92
2023-02-22T22:17:08.251Z,101001.51
2023-02-22T22:19:41.891Z,100998.67
2023-02-22T22:22:11.093Z,100997.48
2023-02-22T22:24:41.873Z,100993.71
2023-02-22T22:27:13.482Z,101001.73
2023-02-22T22:29:43.829Z,101008.36
2023-02-22T22:32:12.689Z,101010.70
2023-02-22T22:34:43.016Z,101015.27
2023-02-22T22:37:11.810Z,101013.11
2023-02-22T22:39:40.581Z,101010.63
2023-02-22T22:42:10.310Z,101013.70
2023-02-22T22:44:42.542Z,101017.89
2023-02-22T22:47:14.049Z,101015.39
2023-02-22T22:49:43.029Z,101020.29
2023-02-22T22:52:17.009Z,101016.46
2023-02-22T22:54:45.834Z,101012.46
2023-02-22T22:57:15.023Z,101014.34
2023-02-22T22:59:43.709Z,101015.52
2023-02-22T23:02:12.861Z,101023.54
2023-02-22T23:04:41.297Z,101024.90
2023-02-22T23:07:09.978Z,101024.02
2023-02-22T23:09:39.706Z,101028.60
2023-02-22T23:12:09.246Z,101030.80
2023-02-22T23:14:44.444Z,101031.13
2023-02-22T23:17:31.584Z,101027.52
2023-02-22T23:20:00.455Z,101021.61
2023-02-22T23:22:29.437Z,101019.42
2023-02-22T23:25:00.140Z,101020.10
2023-02-22T23:27:29.164Z,101018.50
2023-02-22T23:29:57.859Z,101012.90
2023-02-22T23:32:29.575Z,101015.98
2023-02-22T23:34:58.298Z,101014.52
2023-02-22T23:37:26.882Z,101020.50
2023-02-22T23:39:55.468Z,101021.46
2023-02-22T23:42:24.356Z,101024.63
2023-02-22T23:44:53.355Z,101023.81
2023-02-22T23:47:22.044Z,101020.91
2023-02-22T23:49:50.619Z,101020.17
2023-02-22T23:52:24.594Z,101022.20
2023-02-22T23:54:54.195Z,101026.48
2023-02-22T23:57:24.493Z,101021.96
2023-02-22T23:59:53.048Z,101019.40
